createdAt,value
2018-01-17T00:00:52.121Z,98693.23
2018-01-17T00:03:19.783Z,98690.31
2018-01-17T00:05:47.410Z,98686.75
2018-01-17T00:08:15.137Z,98678.80
2018-01-17T00:10:42.701Z,98671.48
2018-01-17T00:13:10.361Z,98674.55
2018-01-17T00:15:37.940Z,98690.22
2018-01-17T00:18:05.565Z,98678.01
2018-01-17T00:20:33.153Z,98674.14
2018-01-17T00:23:00.822Z,98666.60
2018-01-17T00:25:28.454Z,98662.89
2018-01-17T00:27:56.073Z,98654.80
2018-01-17T00:30:23.680Z,98651.87
2018-01-17T00:32:51.309Z,98662.88
2018-01-17T00:35:18.967Z,98666.19
2018-01-17T00:37:46.614Z,98658.52
2018-01-17T00:40:14.199Z,98656.69
2018-01-17T00:42:41.839Z,98672.81
2018-01-17T00:45:09.421Z,98656.67
2018-01-17T00:47:37.040Z,98659.60
2018-01-17T00:50:04.611Z,98654.94
2018-01-17T00:52:32.233Z,98646.06
2018-01-17T00:54:59.834Z,98640.90
2018-01-17T00:57:27.465Z,98650.46
2018-01-17T00:59:55.047Z,98663.96
2018-01-17T01:02:22.649Z,98670.59
2018-01-17T01:04:50.273Z,98670.20
2018-01-17T01:07:21.711Z,98670.44
2018-01-17T01:09:49.337Z,98670.43
2018-01-17T01:12:16.944Z,98677.88
2018-01-17T01:14:44.534Z,98662.75
2018-01-17T01:17:12.149Z,98670.70
2018-01-17T01:19:39.850Z,98678.01
2018-01-17T01:22:07.529Z,98687.14
2018-01-17T01:24:35.141Z,98672.56
2018-01-17T01:27:02.749Z,98673.76
2018-01-17T01:29:30.346Z,98666.31
2018-01-17T01:31:57.958Z,98666.17
2018-01-17T01:34:25.536Z,98675.87
2018-01-17T01:36:53.162Z,98662.11
2018-01-17T01:39:20.736Z,98678.11
2018-01-17T01:41:48.358Z,98677.60
2018-01-17T01:44:15.945Z,98685.41
2018-01-17T01:46:43.553Z,98677.05
2018-01-17T01:49:11.149Z,98684.36
2018-01-17T01:51:38.771Z,98695.06
2018-01-17T01:54:06.355Z,98694.55
2018-01-17T01:56:34.679Z,98702.36
2018-01-17T01:59:02.261Z,98695.88
2018-01-17T02:01:29.875Z,98701.05
2018-01-17T02:03:57.487Z,98677.73
2018-01-17T02:06:25.107Z,98677.72
2018-01-17T02:08:52.686Z,98686.72
2018-01-17T02:11:20.286Z,98683.39
2018-01-17T02:13:48.067Z,98711.77
2018-01-17T02:16:15.674Z,98697.83
2018-01-17T02:18:43.297Z,98701.02
2018-01-17T02:21:11.211Z,98717.85
2018-01-17T02:23:39.181Z,98710.86
2018-01-17T02:26:06.758Z,98702.23
2018-01-17T02:28:34.375Z,98709.27
2018-01-17T02:31:01.968Z,98735.00
2018-01-17T02:33:29.618Z,98729.94
2018-01-17T02:35:57.210Z,98734.73
2018-01-17T02:38:24.861Z,98754.60
2018-01-17T02:40:52.442Z,98730.61
2018-01-17T02:43:20.044Z,98728.47
2018-01-17T02:45:47.618Z,98735.78
2018-01-17T02:48:15.241Z,98751.96
2018-01-17T02:50:42.807Z,98727.05
2018-01-17T02:53:10.558Z,98727.56
2018-01-17T02:55:38.125Z,98711.53
2018-01-17T02:58:05.782Z,98736.60
2018-01-17T03:00:33.360Z,98734.05
2018-01-17T03:03:00.955Z,98719.74
2018-01-17T03:05:28.545Z,98736.34
2018-01-17T03:07:56.150Z,98732.50
2018-01-17T03:10:23.790Z,98772.13
2018-01-17T03:12:51.402Z,98742.43
2018-01-17T03:15:19.004Z,98748.14
2018-01-17T03:17:46.605Z,98740.72
2018-01-17T03:20:14.184Z,98738.73
2018-01-17T03:22:41.799Z,98746.67
2018-01-17T03:25:09.386Z,98743.11
2018-01-17T03:27:36.994Z,98771.84
2018-01-17T03:30:04.562Z,98774.64
2018-01-17T03:32:32.185Z,98756.73
2018-01-17T03:34:59.777Z,98758.59
2018-01-17T03:37:27.389Z,98757.68
2018-01-17T03:39:55.138Z,98761.52
2018-01-17T03:42:22.843Z,98770.11
2018-01-17T03:44:50.429Z,98772.11
2018-01-17T03:47:18.043Z,98766.13
2018-01-17T03:49:45.638Z,98757.25
2018-01-17T03:52:13.297Z,98759.77
2018-01-17T03:54:40.877Z,98769.05
2018-01-17T03:57:08.481Z,98766.91
2018-01-17T03:59:36.055Z,98754.84
2018-01-17T04:02:03.662Z,98762.69
2018-01-17T04:04:31.250Z,98751.81
2018-01-17T04:06:58.872Z,98741.70
2018-01-17T04:09:26.459Z,98756.56
2018-01-17T04:11:54.109Z,98767.44
2018-01-17T04:14:21.709Z,98798.84
2018-01-17T04:16:49.330Z,98807.16
2018-01-17T04:19:16.930Z,98860.23
2018-01-17T04:21:44.541Z,98830.57
2018-01-17T04:24:12.128Z,98839.77
2018-01-17T04:26:39.735Z,98839.71
2018-01-17T04:29:07.385Z,98858.66
2018-01-17T04:31:35.045Z,98833.38
2018-01-17T04:34:02.697Z,98835.47
2018-01-17T04:36:30.393Z,98851.93
2018-01-17T04:38:58.046Z,98837.63
2018-01-17T04:41:25.661Z,98833.67
2018-01-17T04:43:53.361Z,98851.30
2018-01-17T04:46:20.980Z,98842.06
2018-01-17T04:48:48.576Z,98859.11
2018-01-17T04:51:16.282Z,98871.88
2018-01-17T04:53:43.937Z,98888.52
2018-01-17T04:56:11.648Z,98898.31
2018-01-17T04:58:39.304Z,98909.38
2018-01-17T05:01:07.099Z,98909.19
2018-01-17T05:03:34.790Z,98908.94
2018-01-17T05:06:02.576Z,98911.42
2018-01-17T05:08:30.210Z,98912.27
2018-01-17T05:10:57.941Z,98909.89
2018-01-17T05:13:25.603Z,98923.83
2018-01-17T05:15:53.317Z,98933.56
2018-01-17T05:18:21.093Z,98943.86
2018-01-17T05:20:48.785Z,98933.65
2018-01-17T05:23:16.483Z,98938.52
2018-01-17T05:25:44.162Z,98943.70
2018-01-17T05:28:11.829Z,98957.48
2018-01-17T05:30:39.530Z,98954.09
2018-01-17T05:33:07.182Z,98959.58
2018-01-17T05:35:34.868Z,98966.86
2018-01-17T05:38:02.536Z,98979.40
2018-01-17T05:40:30.231Z,98973.18
2018-01-17T05:42:57.921Z,98993.10
2018-01-17T05:45:25.591Z,98992.47
2018-01-17T05:47:53.282Z,98991.44
2018-01-17T05:50:20.946Z,99005.55
2018-01-17T05:52:48.669Z,99013.14
2018-01-17T05:55:16.337Z,98995.48
2018-01-17T05:57:44.046Z,98997.36
2018-01-17T06:00:11.697Z,98986.06
2018-01-17T06:02:39.384Z,99000.48
2018-01-17T06:05:07.061Z,99004.60
2018-01-17T06:07:34.746Z,99004.25
2018-01-17T06:10:02.423Z,98997.42
2018-01-17T06:12:30.106Z,98989.37
2018-01-17T06:14:57.769Z,99003.44
2018-01-17T06:17:25.462Z,99012.58
2018-01-17T06:19:53.153Z,99014.33
2018-01-17T06:22:20.870Z,99020.28
2018-01-17T06:24:48.573Z,99032.55
2018-01-17T06:27:16.267Z,99042.48
2018-01-17T06:29:43.995Z,99046.16
2018-01-17T06:32:11.638Z,99051.01
2018-01-17T06:34:39.321Z,99062.39
2018-01-17T06:37:06.991Z,99064.19
2018-01-17T06:39:34.702Z,99075.98
2018-01-17T06:42:02.447Z,99080.32
2018-01-17T06:44:30.127Z,99085.33
2018-01-17T06:46:57.816Z,99102.59
2018-01-17T06:49:25.475Z,99101.24
2018-01-17T06:51:53.165Z,99107.88
2018-01-17T06:54:20.758Z,99113.82
2018-01-17T06:56:48.448Z,99119.08
2018-01-17T06:59:16.146Z,99119.89
2018-01-17T07:01:43.814Z,99126.24
2018-01-17T07:04:11.514Z,99131.12
2018-01-17T07:06:39.186Z,99124.92
2018-01-17T07:09:06.877Z,99139.45
2018-01-17T07:11:34.543Z,99141.27
2018-01-17T07:14:02.293Z,99155.83
2018-01-17T07:16:29.962Z,99149.80
2018-01-17T07:18:57.654Z,99158.38
2018-01-17T07:21:25.310Z,99167.94
2018-01-17T07:23:53.005Z,99183.39
2018-01-17T07:26:20.673Z,99210.72
2018-01-17T07:28:48.346Z,99202.79
2018-01-17T07:31:16.025Z,99210.71
2018-01-17T07:33:43.750Z,99215.87
2018-01-17T07:36:11.410Z,99223.89
2018-01-17T07:38:39.094Z,99230.95
2018-01-17T07:41:06.753Z,99236.17
2018-01-17T07:43:34.463Z,99227.03
2018-01-17T07:46:02.254Z,99233.56
2018-01-17T07:48:29.918Z,99243.38
2018-01-17T07:50:57.601Z,99246.14
2018-01-17T07:53:25.311Z,99263.80
2018-01-17T07:55:52.970Z,99257.91
2018-01-17T07:58:20.679Z,99274.98
2018-01-17T08:00:48.729Z,99283.55
2018-01-17T08:03:16.413Z,99291.77
2018-01-17T08:05:44.094Z,99306.62
2018-01-17T08:08:11.773Z,99317.30
2018-01-17T08:10:39.457Z,99312.19
2018-01-17T08:13:07.117Z,99310.87
2018-01-17T08:15:34.818Z,99324.06
2018-01-17T08:18:02.470Z,99313.75
2018-01-17T08:20:30.166Z,99318.38
2018-01-17T08:22:57.945Z,99334.88
2018-01-17T08:25:25.637Z,99319.33
2018-01-17T08:27:53.310Z,99325.19
2018-01-17T08:30:20.998Z,99321.89
2018-01-17T08:32:48.665Z,99345.98
2018-01-17T08:35:16.370Z,99353.54
2018-01-17T08:37:44.047Z,99354.91
2018-01-17T08:40:11.728Z,99364.52
2018-01-17T08:42:39.386Z,99369.97
2018-01-17T08:45:07.105Z,99387.23
2018-01-17T08:47:34.768Z,99379.59
2018-01-17T08:50:02.450Z,99379.26
2018-01-17T08:52:30.098Z,99377.73
2018-01-17T08:54:57.797Z,99381.69
2018-01-17T08:57:25.461Z,99387.73
2018-01-17T08:59:53.159Z,99390.07
2018-01-17T09:02:20.829Z,99408.95
2018-01-17T09:04:48.429Z,99408.41
2018-01-17T09:07:18.412Z,99394.03
2018-01-17T09:09:46.029Z,99401.72
2018-01-17T09:12:13.705Z,99420.66
2018-01-17T09:14:41.397Z,99426.94
2018-01-17T09:17:09.059Z,99428.80
2018-01-17T09:19:36.690Z,99446.19
2018-01-17T09:22:04.466Z,99433.27
2018-01-17T09:24:32.039Z,99451.98
2018-01-17T09:26:59.641Z,99448.05
2018-01-17T09:29:27.338Z,99449.95
2018-01-17T09:31:54.940Z,99459.74
2018-01-17T09:34:22.621Z,99459.25
2018-01-17T09:36:50.197Z,99464.30
2018-01-17T09:39:17.882Z,99465.16
2018-01-17T09:41:45.534Z,99467.97
2018-01-17T09:44:13.242Z,99477.27
2018-01-17T09:46:40.915Z,99463.30
2018-01-17T09:49:08.697Z,99486.38
2018-01-17T09:51:36.270Z,99490.67
2018-01-17T09:54:03.958Z,99494.03
2018-01-17T09:56:31.637Z,99513.13
2018-01-17T09:58:59.330Z,99506.23
2018-01-17T10:01:27.002Z,99497.05
2018-01-17T10:03:54.705Z,99517.16
2018-01-17T10:06:22.410Z,99521.60
2018-01-17T10:08:50.102Z,99515.19
2018-01-17T10:11:17.771Z,99524.27
2018-01-17T10:13:45.446Z,99513.99
2018-01-17T10:16:13.047Z,99523.28
2018-01-17T10:18:40.734Z,99515.81
2018-01-17T10:21:08.473Z,99526.91
2018-01-17T10:23:36.086Z,99525.52
2018-01-17T10:26:03.750Z,99523.78
2018-01-17T10:28:31.449Z,99532.95
2018-01-17T10:30:59.123Z,99533.66
2018-01-17T10:33:26.834Z,99537.20
2018-01-17T10:35:54.534Z,99542.56
2018-01-17T10:38:22.150Z,99535.48
2018-01-17T10:40:49.822Z,99536.31
2018-01-17T10:43:17.507Z,99539.89
2018-01-17T10:45:45.149Z,99553.56
2018-01-17T10:48:12.892Z,99540.31
2018-01-17T10:50:40.480Z,99554.86
2018-01-17T10:53:08.179Z,99560.47
2018-01-17T10:55:35.846Z,99549.58
2018-01-17T10:58:03.545Z,99555.75
2018-01-17T11:00:36.487Z,99553.60
2018-01-17T11:03:04.114Z,99547.86
2018-01-17T11:05:31.777Z,99576.51
2018-01-17T11:07:59.515Z,99565.60
2018-01-17T11:10:27.174Z,99562.12
2018-01-17T11:12:54.792Z,99561.44
2018-01-17T11:15:22.385Z,99577.09
2018-01-17T11:17:50.007Z,99564.45
2018-01-17T11:20:17.595Z,99547.80
2018-01-17T11:22:45.361Z,99563.33
2018-01-17T11:25:13.047Z,99565.98
2018-01-17T11:27:40.664Z,99582.02
2018-01-17T11:30:08.346Z,99573.87
2018-01-17T11:32:36.041Z,99560.57
2018-01-17T11:35:03.633Z,99575.04
2018-01-17T11:37:31.330Z,99572.69
2018-01-17T11:39:59.006Z,99572.19
2018-01-17T11:42:26.623Z,99573.75
2018-01-17T11:44:54.211Z,99591.73
2018-01-17T11:47:21.838Z,99576.18
2018-01-17T11:49:49.401Z,99573.13
2018-01-17T11:52:17.093Z,99575.77
2018-01-17T11:54:44.750Z,99565.20
2018-01-17T11:57:12.366Z,99582.81
2018-01-17T11:59:40.031Z,99587.56
2018-01-17T12:02:07.715Z,99581.24
2018-01-17T12:04:35.294Z,99570.12
2018-01-17T12:07:03.040Z,99580.45
2018-01-17T12:09:30.619Z,99611.80
2018-01-17T12:11:58.306Z,99593.64
2018-01-17T12:14:25.936Z,99606.01
2018-01-17T12:16:53.553Z,99591.62
2018-01-17T12:19:21.171Z,99603.08
2018-01-17T12:21:48.785Z,99604.02
2018-01-17T12:24:16.360Z,99626.77
2018-01-17T12:26:43.981Z,99602.78
2018-01-17T12:29:11.666Z,99622.75
2018-01-17T12:31:39.285Z,99611.30
2018-01-17T12:34:06.950Z,99624.45
2018-01-17T12:36:34.568Z,99612.55
2018-01-17T12:39:02.233Z,99626.59
2018-01-17T12:41:29.946Z,99616.27
2018-01-17T12:43:57.646Z,99613.11
2018-01-17T12:46:25.326Z,99612.42
2018-01-17T12:48:52.963Z,99630.91
2018-01-17T12:51:20.527Z,99614.27
2018-01-17T12:53:48.222Z,99626.46
2018-01-17T12:56:15.823Z,99636.65
2018-01-17T12:58:43.482Z,99640.75
2018-01-17T13:01:11.054Z,99620.64
2018-01-17T13:03:38.674Z,99633.98
2018-01-17T13:06:06.314Z,99626.00
2018-01-17T13:08:33.990Z,99625.81
2018-01-17T13:11:01.561Z,99608.78
2018-01-17T13:13:29.474Z,99617.40
2018-01-17T13:15:57.061Z,99617.19
2018-01-17T13:18:24.650Z,99616.07
2018-01-17T13:20:52.289Z,99631.57
2018-01-17T13:23:19.919Z,99636.06
2018-01-17T13:25:47.549Z,99631.85
2018-01-17T13:28:15.135Z,99629.86
2018-01-17T13:30:42.927Z,99633.20
2018-01-17T13:33:10.453Z,99647.28
2018-01-17T13:35:38.097Z,99660.19
2018-01-17T13:38:05.704Z,99669.12
2018-01-17T13:40:33.301Z,99683.05
2018-01-17T13:43:00.910Z,99658.55
2018-01-17T13:45:28.506Z,99676.09
2018-01-17T13:47:56.150Z,99675.49
2018-01-17T13:50:23.807Z,99672.39
2018-01-17T13:52:51.420Z,99683.36
2018-01-17T13:55:19.009Z,99684.66
2018-01-17T13:57:46.616Z,99683.59
2018-01-17T14:00:14.210Z,99680.84
2018-01-17T14:02:41.806Z,99724.09
2018-01-17T14:05:09.449Z,99687.99
2018-01-17T14:07:37.054Z,99688.37
2018-01-17T14:10:04.626Z,99708.94
2018-01-17T14:12:32.318Z,99683.30
2018-01-17T14:14:59.929Z,99695.67
2018-01-17T14:17:27.519Z,99691.23
2018-01-17T14:19:55.171Z,99687.05
2018-01-17T14:22:22.757Z,99712.45
2018-01-17T14:24:50.405Z,99762.97
2018-01-17T14:27:17.978Z,99739.12
2018-01-17T14:29:45.599Z,99753.91
2018-01-17T14:32:13.187Z,99765.88
2018-01-17T14:34:40.815Z,99779.56
2018-01-17T14:37:08.429Z,99774.02
2018-01-17T14:39:36.130Z,99777.34
2018-01-17T14:42:03.793Z,99763.70
2018-01-17T14:44:31.484Z,99814.44
2018-01-17T14:46:59.178Z,99798.44
2018-01-17T14:49:26.870Z,99792.14
2018-01-17T14:51:54.566Z,99806.06
2018-01-17T14:54:22.304Z,99812.95
2018-01-17T14:56:49.930Z,99806.08
2018-01-17T14:59:17.625Z,99820.08
2018-01-17T15:01:45.206Z,99824.27
2018-01-17T15:04:13.104Z,99833.70
2018-01-17T15:06:40.681Z,99832.02
2018-01-17T15:09:08.478Z,99845.23
2018-01-17T15:11:36.065Z,99835.97
2018-01-17T15:14:03.704Z,99843.77
2018-01-17T15:16:31.366Z,99844.08
2018-01-17T15:18:59.061Z,99850.48
2018-01-17T15:21:26.730Z,99857.86
2018-01-17T15:23:54.414Z,99857.38
2018-01-17T15:26:22.002Z,99867.08
2018-01-17T15:28:49.621Z,99865.94
2018-01-17T15:31:17.210Z,99885.90
2018-01-17T15:33:44.830Z,99889.89
2018-01-17T15:36:12.417Z,99892.63
2018-01-17T15:38:40.051Z,99902.91
2018-01-17T15:41:07.658Z,99899.65
2018-01-17T15:43:35.269Z,99902.67
2018-01-17T15:46:03.027Z,99911.89
2018-01-17T15:48:30.660Z,99906.47
2018-01-17T15:50:58.255Z,99905.55
2018-01-17T15:53:25.902Z,99922.73
2018-01-17T15:55:53.477Z,99927.13
2018-01-17T15:58:21.090Z,99924.59
2018-01-17T16:00:48.679Z,99952.66
2018-01-17T16:03:16.307Z,99934.30
2018-01-17T16:05:43.898Z,99969.63
2018-01-17T16:08:11.532Z,99961.14
2018-01-17T16:10:39.110Z,99958.13
2018-01-17T16:13:06.754Z,99964.80
2018-01-17T16:15:34.365Z,99973.70
2018-01-17T16:18:01.981Z,99976.36
2018-01-17T16:20:29.618Z,99989.80
2018-01-17T16:22:57.277Z,99980.84
2018-01-17T16:25:24.866Z,99985.59
2018-01-17T16:27:52.513Z,99999.03
2018-01-17T16:30:20.224Z,100006.61
2018-01-17T16:32:47.830Z,100018.12
2018-01-17T16:35:15.577Z,100010.96
2018-01-17T16:37:43.201Z,100013.59
2018-01-17T16:40:10.815Z,100024.89
2018-01-17T16:42:38.429Z,100028.36
2018-01-17T16:45:06.040Z,100021.95
2018-01-17T16:47:33.649Z,100020.70
2018-01-17T16:50:01.266Z,100035.52
2018-01-17T16:52:28.890Z,100032.72
2018-01-17T16:54:56.517Z,100036.45
2018-01-17T16:57:24.107Z,100038.45
2018-01-17T16:59:51.713Z,100047.80
2018-01-17T17:02:19.443Z,100062.13
2018-01-17T17:04:47.049Z,100066.09
2018-01-17T17:07:14.657Z,100068.91
2018-01-17T17:09:42.260Z,100061.93
2018-01-17T17:12:09.897Z,100071.50
2018-01-17T17:14:37.506Z,100068.97
2018-01-17T17:17:05.130Z,100071.50
2018-01-17T17:19:32.730Z,100076.73
2018-01-17T17:22:00.386Z,100075.95
2018-01-17T17:24:27.995Z,100085.11
2018-01-17T17:26:55.707Z,100079.36
2018-01-17T17:29:23.438Z,100090.98
2018-01-17T17:31:51.070Z,100083.02
2018-01-17T17:34:18.675Z,100087.74
2018-01-17T17:36:46.286Z,100086.67
2018-01-17T17:39:13.902Z,100098.84
2018-01-17T17:41:41.718Z,100096.27
2018-01-17T17:44:09.322Z,100092.58
2018-01-17T17:46:36.945Z,100090.53
2018-01-17T17:49:04.767Z,100101.82
2018-01-17T17:51:32.387Z,100085.41
2018-01-17T17:53:59.995Z,100089.96
2018-01-17T17:56:27.610Z,100080.91
2018-01-17T17:58:55.210Z,100083.55
2018-01-17T18:01:22.857Z,100090.72
2018-01-17T18:03:50.458Z,100100.53
2018-01-17T18:06:18.099Z,100098.34
2018-01-17T18:08:45.678Z,100108.30
2018-01-17T18:11:13.307Z,100098.10
2018-01-17T18:13:40.993Z,100099.55
2018-01-17T18:16:08.611Z,100109.74
2018-01-17T18:18:36.345Z,100124.99
2018-01-17T18:21:03.958Z,100124.42
2018-01-17T18:23:31.537Z,100124.48
2018-01-17T18:25:59.189Z,100131.83
2018-01-17T18:28:26.808Z,100138.34
2018-01-17T18:30:54.441Z,100129.35
2018-01-17T18:33:22.044Z,100138.52
2018-01-17T18:35:49.714Z,100132.84
2018-01-17T18:38:17.306Z,100135.09
2018-01-17T18:40:44.947Z,100137.62
2018-01-17T18:43:12.533Z,100137.91
2018-01-17T18:45:40.154Z,100131.63
2018-01-17T18:48:07.865Z,100137.77
2018-01-17T18:50:35.503Z,100128.08
2018-01-17T18:53:03.114Z,100134.98
2018-01-17T18:55:30.719Z,100148.70
2018-01-17T18:57:58.332Z,100134.91
2018-01-17T19:00:25.954Z,100134.13
2018-01-17T19:02:53.640Z,100134.42
2018-01-17T19:05:21.317Z,100135.63
2018-01-17T19:07:48.929Z,100137.91
2018-01-17T19:10:16.652Z,100137.08
2018-01-17T19:12:44.333Z,100146.55
2018-01-17T19:15:11.970Z,100130.16
2018-01-17T19:17:39.657Z,100147.02
2018-01-17T19:20:07.292Z,100136.05
2018-01-17T19:22:34.975Z,100142.41
2018-01-17T19:25:02.623Z,100135.52
2018-01-17T19:27:30.234Z,100145.05
2018-01-17T19:29:57.882Z,100136.20
2018-01-17T19:32:25.484Z,100145.78
2018-01-17T19:34:53.137Z,100138.62
2018-01-17T19:37:20.790Z,100144.94
2018-01-17T19:39:48.423Z,100143.48
2018-01-17T19:42:16.051Z,100138.06
2018-01-17T19:44:43.662Z,100148.26
2018-01-17T19:47:11.280Z,100150.29
2018-01-17T19:49:38.931Z,100135.46
2018-01-17T19:52:06.539Z,100138.06
2018-01-17T19:54:34.172Z,100140.55
2018-01-17T19:57:01.749Z,100128.73
2018-01-17T19:59:29.413Z,100134.33
2018-01-17T20:01:57.029Z,100134.45
2018-01-17T20:04:24.830Z,100128.66
2018-01-17T20:06:52.529Z,100124.91
2018-01-17T20:09:21.817Z,100137.20
2018-01-17T20:11:49.489Z,100133.52
2018-01-17T20:14:17.169Z,100128.69
2018-01-17T20:16:44.779Z,100137.73
2018-01-17T20:19:12.406Z,100136.45
2018-01-17T20:21:40.041Z,100141.45
2018-01-17T20:24:07.731Z,100147.59
2018-01-17T20:26:35.350Z,100142.70
2018-01-17T20:29:02.980Z,100136.74
2018-01-17T20:31:30.662Z,100140.31
2018-01-17T20:33:58.248Z,100135.27
2018-01-17T20:36:25.858Z,100133.87
2018-01-17T20:38:53.489Z,100129.22
2018-01-17T20:41:21.075Z,100141.75
2018-01-17T20:43:48.840Z,100158.61
2018-01-17T20:46:16.445Z,100139.75
2018-01-17T20:48:44.051Z,100146.20
2018-01-17T20:51:11.730Z,100144.27
2018-01-17T20:53:39.362Z,100142.78
2018-01-17T20:56:06.990Z,100162.16
2018-01-17T20:58:34.601Z,100138.92
2018-01-17T21:01:02.202Z,100136.94
2018-01-17T21:03:29.830Z,100131.83
2018-01-17T21:05:57.454Z,100137.19
2018-01-17T21:08:25.081Z,100139.42
2018-01-17T21:10:52.719Z,100139.59
2018-01-17T21:13:20.341Z,100140.88
2018-01-17T21:15:48.064Z,100143.53
2018-01-17T21:18:15.692Z,100152.39
2018-01-17T21:20:43.291Z,100149.73
2018-01-17T21:23:10.910Z,100160.66
2018-01-17T21:25:38.514Z,100148.33
2018-01-17T21:28:06.177Z,100159.37
2018-01-17T21:30:33.772Z,100157.13
2018-01-17T21:33:01.406Z,100162.99
2018-01-17T21:35:29.038Z,100173.27
2018-01-17T21:37:56.668Z,100163.33
2018-01-17T21:40:24.299Z,100158.67
2018-01-17T21:42:57.527Z,100187.88
2018-01-17T21:45:30.638Z,100162.92
2018-01-17T21:47:58.341Z,100174.19
2018-01-17T21:50:25.941Z,100178.12
2018-01-17T21:52:53.550Z,100196.05
2018-01-17T21:55:21.246Z,100174.41
2018-01-17T21:57:48.863Z,100176.12
2018-01-17T22:00:16.528Z,100160.94
2018-01-17T22:02:44.130Z,100165.95
2018-01-17T22:05:11.759Z,100158.95
2018-01-17T22:07:39.359Z,100151.23
2018-01-17T22:10:06.977Z,100160.28
2018-01-17T22:12:34.582Z,100154.19
2018-01-17T22:15:02.208Z,100147.97
2018-01-17T22:17:29.794Z,100151.27
2018-01-17T22:19:57.427Z,100162.36
2018-01-17T22:22:25.046Z,100148.58
2018-01-17T22:24:52.671Z,100165.01
2018-01-17T22:27:20.310Z,100137.76
2018-01-17T22:29:47.923Z,100137.47
2018-01-17T22:32:15.523Z,100133.16
2018-01-17T22:34:43.142Z,100142.44
2018-01-17T22:37:10.754Z,100139.44
2018-01-17T22:39:38.370Z,100139.20
2018-01-17T22:53:18.716Z,100120.57
2018-01-17T22:55:46.312Z,100119.41
2018-01-17T22:58:13.957Z,100125.44
2018-01-17T23:00:41.542Z,100138.41
2018-01-17T23:03:09.162Z,100129.03
2018-01-17T23:05:36.758Z,100130.12
2018-01-17T23:08:04.417Z,100130.98
2018-01-17T23:10:32.021Z,100133.27
2018-01-17T23:12:59.645Z,100134.05
2018-01-17T23:15:27.250Z,100135.59
2018-01-17T23:17:54.858Z,100126.44
2018-01-17T23:20:22.459Z,100125.48
2018-01-17T23:22:50.127Z,100123.06
2018-01-17T23:25:28.852Z,100122.52
2018-01-17T23:28:06.995Z,100129.49
2018-01-17T23:41:54.606Z,100107.75
2018-01-17T23:44:22.229Z,100105.48
2018-01-17T23:46:49.834Z,100093.45
2018-01-17T23:49:17.456Z,100087.19
